Time;durP1;ratioP1;P1;durP2;ratioP2;P2;SDS_P1;SDS_P2;PMS_P1;PMS_P2;Temp;Humidity;BMP_temperature;BMP_pressure;BME280_temperature;BME280_humidity;BME280_pressure;Samples;Min_cycle;Max_cycle;Signal;HPM_P1;HPM_P2
2022/10/12 00:00:46;;;;;;;13.77;7.60;;;4.40;1.00;;;;;;5058990;28;20893;-57
2022/10/12 00:03:13;;;;;;;12.73;8.10;;;4.40;1.00;;;;;;5058811;28;20436;-53
2022/10/12 00:05:40;;;;;;;18.40;9.40;;;4.40;1.00;;;;;;5058902;28;20496;-55
2022/10/12 00:08:08;;;;;;;17.43;8.70;;;4.30;1.00;;;;;;5058744;28;20441;-58
2022/10/12 00:10:39;;;;;;;19.27;9.03;;;4.40;1.00;;;;;;5059060;28;20462;-59
2022/10/12 00:13:07;;;;;;;13.53;8.50;;;4.20;1.00;;;;;;5058582;28;20464;-54
2022/10/12 00:15:37;;;;;;;15.70;8.13;;;4.20;96.70;;;;;;5058384;28;20458;-53
2022/10/12 00:18:06;;;;;;;12.57;8.83;;;4.20;99.90;;;;;;5058568;28;20467;-59
2022/10/12 00:20:34;;;;;;;16.80;8.10;;;4.20;1.00;;;;;;5058659;28;20473;-59
2022/10/12 00:23:02;;;;;;;15.73;8.40;;;4.20;1.00;;;;;;5058713;28;20502;-56
2022/10/12 00:25:29;;;;;;;12.20;8.33;;;4.20;99.90;;;;;;5058044;28;20965;-52
2022/10/12 00:27:56;;;;;;;13.27;7.27;;;4.20;99.90;;;;;;5058593;28;20541;-55
2022/10/12 00:30:24;;;;;;;18.70;8.17;;;4.20;99.90;;;;;;5058152;28;20465;-55
2022/10/12 00:32:51;;;;;;;12.60;7.43;;;4.20;99.90;;;;;;5058483;28;20469;-55
2022/10/12 00:35:19;;;;;;;12.97;8.03;;;4.20;99.90;;;;;;5057263;28;20569;-57
2022/10/12 00:37:47;;;;;;;13.17;7.33;;;4.20;1.00;;;;;;5058221;28;20501;-59
2022/10/12 00:40:14;;;;;;;13.83;6.83;;;4.20;99.90;;;;;;5058501;28;20462;-56
2022/10/12 00:42:41;;;;;;;8.70;6.60;;;4.10;50.40;;;;;;5057744;28;20467;-53
2022/10/12 00:45:10;;;;;;;10.80;5.90;;;4.10;1.00;;;;;;5058059;28;20805;-58
2022/10/12 00:47:49;;;;;;;12.33;6.20;;;4.10;1.00;;;;;;5058053;28;20616;-53
2022/10/12 00:50:22;;;;;;;14.07;7.40;;;4.10;1.00;;;;;;5058267;28;20466;-56
2022/10/12 00:52:59;;;;;;;8.77;6.20;;;4.00;99.90;;;;;;5057746;28;20470;-54
2022/10/12 00:55:29;;;;;;;8.63;6.53;;;4.00;99.90;;;;;;5057775;28;20458;-55
2022/10/12 00:57:56;;;;;;;10.67;6.60;;;3.90;99.90;;;;;;5057391;28;20469;-55
2022/10/12 01:00:24;;;;;;;16.73;7.10;;;3.90;1.00;;;;;;5057701;28;20442;-54
2022/10/12 01:02:54;;;;;;;13.77;6.80;;;3.90;99.90;;;;;;5057890;28;20532;-56
2022/10/12 01:05:26;;;;;;;11.40;6.50;;;3.90;1.00;;;;;;5057535;28;20563;-54
2022/10/12 01:07:53;;;;;;;9.13;6.47;;;3.90;1.00;;;;;;5057988;28;20463;-58
2022/10/12 01:10:21;;;;;;;12.83;6.10;;;3.90;99.90;;;;;;5057786;28;20556;-53
2022/10/12 01:12:53;;;;;;;12.40;8.30;;;3.90;19.10;;;;;;5057218;28;20554;-58
2022/10/12 01:15:23;;;;;;;11.83;6.97;;;3.90;1.00;;;;;;5057216;28;20478;-54
2022/10/12 01:18:00;;;;;;;7.90;5.73;;;3.90;1.00;;;;;;5057565;28;20443;-56
2022/10/12 01:21:01;;;;;;;9.50;5.97;;;3.80;99.90;;;;;;5057531;28;20761;-54
2022/10/12 01:24:10;;;;;;;9.67;6.83;;;3.80;99.90;;;;;;5046313;28;20564;-55
2022/10/12 01:27:16;;;;;;;10.93;6.40;;;3.70;99.90;;;;;;5057539;28;20490;-56
2022/10/12 01:30:18;;;;;;;14.30;7.47;;;3.70;99.90;;;;;;5042234;28;20720;-57
2022/10/12 01:33:10;;;;;;;11.53;7.67;;;3.70;26.40;;;;;;5025044;28;20458;-53
2022/10/12 01:35:43;;;;;;;11.23;6.50;;;3.70;99.90;;;;;;5056980;28;20454;-57
2022/10/12 01:38:26;;;;;;;14.73;6.30;;;3.70;99.90;;;;;;5057028;28;20458;-59
2022/10/12 01:40:59;;;;;;;10.80;6.57;;;3.70;99.90;;;;;;5056625;28;20436;-59
2022/10/12 01:43:34;;;;;;;11.60;7.33;;;3.70;1.00;;;;;;5057051;28;20926;-56
2022/10/12 01:46:45;;;;;;;13.80;8.60;;;3.60;1.00;;;;;;5057231;28;20573;-57
2022/10/12 01:49:17;;;;;;;16.53;6.70;;;3.70;99.90;;;;;;5057247;28;20459;-57
2022/10/12 01:51:59;;;;;;;9.77;6.50;;;3.70;99.90;;;;;;5056885;28;20462;-56
2022/10/12 01:54:35;;;;;;;11.20;6.40;;;3.60;67.20;;;;;;5057124;28;20551;-57
2022/10/12 01:57:08;;;;;;;11.43;6.20;;;3.70;1.00;;;;;;5057396;28;20486;-50
2022/10/12 01:59:46;;;;;;;11.80;6.43;;;3.60;1.00;;;;;;5057047;28;20440;-58
2022/10/12 02:02:20;;;;;;;8.80;5.77;;;3.60;12.40;;;;;;5057449;28;20514;-53
2022/10/12 02:04:58;;;;;;;13.17;7.03;;;3.50;99.90;;;;;;5056954;28;20516;-58
2022/10/12 02:07:35;;;;;;;10.43;6.93;;;3.50;99.90;;;;;;5056937;28;20441;-52
2022/10/12 02:10:05;;;;;;;13.43;7.70;;;3.50;4.30;;;;;;5056721;28;20441;-59
2022/10/12 02:12:34;;;;;;;10.37;6.63;;;3.50;58.70;;;;;;5058514;28;20468;-57
2022/10/12 02:15:04;;;;;;;7.67;6.37;;;3.50;99.90;;;;;;5060630;28;20480;-51
2022/10/12 02:17:35;;;;;;;11.07;7.00;;;3.40;99.90;;;;;;5060437;28;20472;-56
2022/10/12 02:20:11;;;;;;;9.67;6.10;;;3.50;1.00;;;;;;5061011;28;20464;-57
2022/10/12 02:22:41;;;;;;;11.00;6.50;;;3.40;1.00;;;;;;5060891;28;20472;-58
2022/10/12 02:25:11;;;;;;;10.20;6.80;;;3.30;92.90;;;;;;5060241;28;20486;-54
2022/10/12 02:27:45;;;;;;;10.23;7.10;;;3.30;1.00;;;;;;5060032;28;20447;-55
2022/10/12 02:30:12;;;;;;;9.93;6.37;;;3.30;99.90;;;;;;5060713;28;20564;-54
2022/10/12 02:32:49;;;;;;;14.50;7.40;;;3.30;99.90;;;;;;5060632;28;20779;-56
2022/10/12 02:35:27;;;;;;;11.10;6.80;;;3.20;99.90;;;;;;5060259;28;20461;-57
2022/10/12 02:38:01;;;;;;;11.53;7.37;;;3.10;1.00;;;;;;5060668;28;20490;-57
2022/10/12 02:40:38;;;;;;;9.97;7.10;;;3.20;1.00;;;;;;5060815;28;20913;-57
2022/10/12 02:43:09;;;;;;;12.23;7.67;;;3.20;99.90;;;;;;5060479;28;20461;-56
2022/10/12 02:45:38;;;;;;;10.40;7.57;;;3.20;38.90;;;;;;5059715;28;20900;-56
2022/10/12 02:48:07;;;;;;;12.43;7.77;;;3.20;99.90;;;;;;5060551;28;20561;-59
2022/10/12 02:50:37;;;;;;;16.80;7.60;;;3.20;1.00;;;;;;5060388;28;20466;-58
2022/10/12 02:53:05;;;;;;;11.60;6.73;;;3.30;1.00;;;;;;5060605;28;20486;-60
2022/10/12 02:55:32;;;;;;;13.50;7.87;;;3.30;75.70;;;;;;5060046;28;20459;-57
2022/10/12 02:58:02;;;;;;;14.27;7.67;;;3.30;99.90;;;;;;5060256;28;20470;-56
2022/10/12 03:00:31;;;;;;;11.10;6.97;;;3.30;46.50;;;;;;5060561;28;20472;-59
2022/10/12 03:02:58;;;;;;;10.67;7.13;;;3.30;99.90;;;;;;5060558;28;20440;-54
2022/10/12 03:05:27;;;;;;;12.63;7.20;;;3.20;99.90;;;;;;5060113;28;20489;-55
2022/10/12 03:07:56;;;;;;;13.23;7.73;;;3.10;99.90;;;;;;5059804;28;20437;-58
2022/10/12 03:10:23;;;;;;;12.73;7.53;;;3.10;99.90;;;;;;5060140;28;20804;-56
2022/10/12 03:12:50;;;;;;;10.47;6.50;;;3.10;99.90;;;;;;5059795;28;20469;-56
2022/10/12 03:15:18;;;;;;;18.37;8.00;;;3.10;49.90;;;;;;5060226;28;20433;-54
2022/10/12 03:17:45;;;;;;;11.20;7.00;;;3.10;1.00;;;;;;5060320;28;20461;-57
2022/10/12 03:20:13;;;;;;;10.03;7.60;;;3.10;1.00;;;;;;5059705;28;20557;-55
2022/10/12 03:22:40;;;;;;;10.80;6.83;;;3.10;1.00;;;;;;5059772;28;20468;-58
2022/10/12 03:25:09;;;;;;;12.50;7.43;;;3.10;99.90;;;;;;5059408;28;20441;-58
2022/10/12 03:27:36;;;;;;;8.73;7.23;;;3.10;99.90;;;;;;5059897;28;20469;-50
2022/10/12 03:30:04;;;;;;;11.60;6.60;;;3.10;99.90;;;;;;5059380;28;20465;-59
2022/10/12 03:32:31;;;;;;;9.73;7.50;;;3.10;1.00;;;;;;5059302;28;20458;-53
2022/10/12 03:34:58;;;;;;;13.20;7.93;;;3.10;99.90;;;;;;5059949;28;20433;-56
2022/10/12 03:37:27;;;;;;;13.70;7.20;;;3.10;1.00;;;;;;5059450;28;20858;-56
2022/10/12 03:39:54;;;;;;;10.60;7.20;;;3.10;99.90;;;;;;5059472;28;20441;-58
2022/10/12 03:42:23;;;;;;;7.90;6.80;;;3.10;99.90;;;;;;5059138;28;20561;-59
2022/10/12 03:44:50;;;;;;;9.57;7.80;;;3.10;1.00;;;;;;5059618;28;20489;-57
2022/10/12 03:47:18;;;;;;;12.50;7.87;;;3.10;99.90;;;;;;5059112;28;20494;-58
2022/10/12 03:49:45;;;;;;;9.77;7.40;;;3.10;99.90;;;;;;5059113;28;20561;-57
2022/10/12 03:52:15;;;;;;;10.10;6.97;;;3.10;99.90;;;;;;5059517;28;20470;-57
2022/10/12 03:54:42;;;;;;;10.77;7.00;;;3.00;99.90;;;;;;5059476;28;20443;-58
2022/10/12 03:57:09;;;;;;;9.90;7.47;;;3.00;99.90;;;;;;5058744;28;20454;-56
2022/10/12 03:59:38;;;;;;;7.90;6.30;;;3.00;99.90;;;;;;5059325;28;20561;-51
2022/10/12 04:02:05;;;;;;;10.33;7.30;;;3.00;99.90;;;;;;5059030;28;20440;-58
2022/10/12 04:04:32;;;;;;;12.63;6.80;;;2.90;99.90;;;;;;5059128;28;20466;-58
2022/10/12 04:06:59;;;;;;;14.13;6.87;;;2.90;1.00;;;;;;5058729;28;20486;-59
2022/10/12 04:09:27;;;;;;;9.87;7.80;;;2.90;99.90;;;;;;5058751;28;20536;-52
2022/10/12 04:11:54;;;;;;;10.13;6.90;;;2.80;1.00;;;;;;5058876;28;20471;-52
2022/10/12 04:14:21;;;;;;;12.20;7.60;;;2.80;1.00;;;;;;5057878;28;20468;-56
2022/10/12 04:16:52;;;;;;;8.40;6.70;;;2.80;99.90;;;;;;5059006;28;20519;-58
2022/10/12 04:19:20;;;;;;;12.23;6.70;;;2.80;99.90;;;;;;5058538;28;20462;-59
2022/10/12 04:21:47;;;;;;;20.57;7.80;;;2.90;99.90;;;;;;5058926;28;20736;-54
2022/10/12 04:24:16;;;;;;;11.40;7.47;;;2.80;17.40;;;;;;5058712;28;20462;-56
2022/10/12 04:26:43;;;;;;;9.63;6.80;;;2.90;99.90;;;;;;5057869;28;20534;-53
2022/10/12 04:29:13;;;;;;;10.40;7.33;;;2.90;1.00;;;;;;5058252;28;20450;-55
2022/10/12 04:31:40;;;;;;;13.17;7.97;;;2.90;51.80;;;;;;5058569;28;20542;-53
2022/10/12 04:34:09;;;;;;;14.00;7.50;;;2.90;1.00;;;;;;5058473;28;20551;-57
2022/10/12 04:36:36;;;;;;;14.60;7.70;;;2.90;99.90;;;;;;5058046;28;20459;-53
2022/10/12 04:39:04;;;;;;;14.67;8.00;;;2.90;99.90;;;;;;5057893;28;20443;-58
2022/10/12 04:41:31;;;;;;;11.90;7.60;;;2.90;1.00;;;;;;5057982;28;20553;-58
2022/10/12 04:43:59;;;;;;;16.53;8.93;;;2.90;1.00;;;;;;5057978;28;20548;-59
2022/10/12 04:46:26;;;;;;;12.47;7.50;;;2.90;99.90;;;;;;5058504;28;20494;-59
2022/10/12 04:48:53;;;;;;;12.80;7.93;;;2.90;1.00;;;;;;5058162;28;20469;-58
2022/10/12 04:51:22;;;;;;;14.17;8.03;;;2.90;1.00;;;;;;5057895;28;20498;-56
2022/10/12 04:53:49;;;;;;;14.23;8.47;;;2.90;99.90;;;;;;5057901;28;20468;-58
2022/10/12 04:56:18;;;;;;;12.70;8.03;;;3.00;34.60;;;;;;5058084;28;20460;-56
2022/10/12 04:58:45;;;;;;;12.77;7.70;;;3.00;99.90;;;;;;5057847;28;20481;-59
2022/10/12 05:01:12;;;;;;;13.03;8.13;;;3.00;1.00;;;;;;5057233;28;20470;-59
2022/10/12 05:03:45;;;;;;;17.57;8.20;;;3.00;1.00;;;;;;5057025;28;20591;-56
2022/10/12 05:06:16;;;;;;;15.57;7.67;;;3.00;1.00;;;;;;5058212;28;20728;-55
2022/10/12 05:08:44;;;;;;;10.53;7.70;;;3.00;1.30;;;;;;5057707;28;20488;-56
2022/10/12 05:11:12;;;;;;;12.50;7.23;;;3.10;99.90;;;;;;5057301;28;20444;-56
2022/10/12 05:13:39;;;;;;;12.70;7.47;;;3.10;99.90;;;;;;5056970;28;20555;-58
2022/10/12 05:16:07;;;;;;;14.67;8.20;;;3.10;99.90;;;;;;5057214;28;20487;-56
2022/10/12 05:18:34;;;;;;;12.20;8.07;;;3.20;99.90;;;;;;5057445;28;20494;-58
2022/10/12 05:21:01;;;;;;;12.07;6.53;;;3.20;99.90;;;;;;5056895;28;20473;-54
2022/10/12 05:23:29;;;;;;;10.53;7.30;;;3.30;72.20;;;;;;5057402;28;20464;-56
2022/10/12 05:25:57;;;;;;;14.50;8.00;;;3.20;1.00;;;;;;5057003;28;20462;-58
2022/10/12 05:28:24;;;;;;;19.37;8.50;;;3.20;1.00;;;;;;5057107;28;20788;-58
2022/10/12 05:30:52;;;;;;;18.00;8.13;;;3.20;99.90;;;;;;5057550;28;20909;-56
2022/10/12 05:33:22;;;;;;;18.20;9.23;;;3.20;99.90;;;;;;5042295;28;20459;-57
2022/10/12 05:35:49;;;;;;;13.07;7.60;;;3.20;99.90;;;;;;5037602;28;20467;-55
2022/10/12 05:38:17;;;;;;;15.53;8.30;;;3.30;99.90;;;;;;5037107;28;20978;-58
2022/10/12 05:40:45;;;;;;;12.63;7.07;;;3.20;72.90;;;;;;5075176;28;20508;-60
2022/10/12 05:43:13;;;;;;;12.63;7.70;;;3.20;1.00;;;;;;5077359;28;20531;-61
2022/10/12 05:45:43;;;;;;;13.70;7.63;;;3.20;1.00;;;;;;5076842;28;20461;-61
2022/10/12 05:48:10;;;;;;;11.03;7.30;;;3.30;1.00;;;;;;5076407;28;20464;-61
2022/10/12 05:50:37;;;;;;;14.20;7.83;;;3.30;1.00;;;;;;5077295;28;20465;-61
2022/10/12 05:53:07;;;;;;;12.17;8.33;;;3.40;1.00;;;;;;5076923;28;20803;-59
2022/10/12 05:55:37;;;;;;;18.13;9.70;;;3.30;1.00;;;;;;5077448;28;20444;-61
2022/10/12 05:58:06;;;;;;;11.83;8.50;;;3.30;42.60;;;;;;5076327;28;20464;-61
2022/10/12 06:00:34;;;;;;;14.10;8.50;;;3.30;1.00;;;;;;5077105;28;20444;-61
2022/10/12 06:03:02;;;;;;;17.47;11.07;;;3.30;99.90;;;;;;5077513;28;20763;-61
2022/10/12 06:05:29;;;;;;;12.80;9.13;;;3.30;99.90;;;;;;5076610;28;20472;-60
2022/10/12 06:07:56;;;;;;;14.23;9.80;;;3.30;1.00;;;;;;5077290;28;20771;-61
2022/10/12 06:10:23;;;;;;;13.13;8.50;;;3.40;1.00;;;;;;5076869;28;20496;-58
2022/10/12 06:12:51;;;;;;;16.03;7.50;;;3.40;99.90;;;;;;5076799;28;20903;-59
2022/10/12 06:15:18;;;;;;;19.13;8.60;;;3.40;1.00;;;;;;5076552;28;20461;-60
2022/10/12 06:17:49;;;;;;;13.13;8.50;;;3.40;1.00;;;;;;5076168;28;20935;-59
2022/10/12 06:20:16;;;;;;;20.97;9.53;;;3.30;99.90;;;;;;5077124;28;20912;-58
2022/10/12 06:22:43;;;;;;;15.00;9.00;;;3.30;99.90;;;;;;5076991;28;20830;-54
2022/10/12 06:25:13;;;;;;;16.30;9.60;;;3.40;99.90;;;;;;5076368;28;20820;-59
2022/10/12 06:27:40;;;;;;;15.57;8.20;;;3.40;99.90;;;;;;5076356;28;20464;-54
2022/10/12 06:30:08;;;;;;;15.80;8.70;;;3.40;1.00;;;;;;5076713;28;20515;-56
2022/10/12 06:32:35;;;;;;;12.73;8.43;;;3.40;99.90;;;;;;5077155;28;20483;-59
2022/10/12 06:35:05;;;;;;;15.57;8.90;;;3.40;31.20;;;;;;5076312;28;20439;-58
2022/10/12 06:37:32;;;;;;;15.83;9.10;;;3.50;1.00;;;;;;5076736;28;20819;-59
2022/10/12 06:39:59;;;;;;;11.73;8.17;;;3.50;99.90;;;;;;5077016;28;20437;-61
2022/10/12 06:42:28;;;;;;;14.30;7.80;;;3.50;99.90;;;;;;5077170;28;20443;-61
2022/10/12 06:44:58;;;;;;;13.27;9.00;;;3.50;99.90;;;;;;5076274;28;20470;-61
2022/10/12 06:47:26;;;;;;;14.13;8.50;;;3.60;1.00;;;;;;5076310;28;20499;-60
2022/10/12 06:49:53;;;;;;;14.47;8.40;;;3.60;99.90;;;;;;5076652;28;20436;-60
2022/10/12 06:52:21;;;;;;;14.53;8.20;;;3.70;1.00;;;;;;5076734;28;20739;-59
2022/10/12 06:54:51;;;;;;;21.50;10.27;;;3.80;1.00;;;;;;5076705;28;20565;-61
2022/10/12 06:57:18;;;;;;;16.53;10.27;;;4.00;96.80;;;;;;5076347;28;20934;-61
2022/10/12 06:59:45;;;;;;;18.17;10.63;;;4.10;99.90;;;;;;5079352;28;20465;-61
2022/10/12 07:02:12;;;;;;;12.27;9.13;;;4.20;99.90;;;;;;5079990;28;20741;-62
2022/10/12 07:04:40;;;;;;;18.03;10.23;;;4.40;1.00;;;;;;5079085;28;20465;-62
2022/10/12 07:07:07;;;;;;;19.73;10.27;;;4.60;99.90;;;;;;5078780;28;20528;-63
2022/10/12 07:09:36;;;;;;;16.93;10.00;;;4.90;1.00;;;;;;5078575;28;20465;-62
2022/10/12 07:12:04;;;;;;;16.00;10.10;;;5.20;1.30;;;;;;5079883;28;20465;-63
2022/10/12 07:14:31;;;;;;;14.93;10.77;;;5.40;23.10;;;;;;5077886;28;20481;-63
2022/10/12 07:17:01;;;;;;;17.33;10.00;;;5.80;10.80;;;;;;5078629;28;20436;-63
2022/10/12 07:19:28;;;;;;;19.73;12.03;;;6.10;63.80;;;;;;5079364;28;20461;-63
2022/10/12 07:21:55;;;;;;;17.00;10.13;;;6.30;99.90;;;;;;5079437;28;20461;-64
2022/10/12 07:24:22;;;;;;;15.90;10.73;;;6.60;99.90;;;;;;5079581;28;20465;-63
2022/10/12 07:26:52;;;;;;;20.90;10.37;;;6.90;1.00;;;;;;5079076;28;20976;-64
2022/10/12 07:29:19;;;;;;;25.93;11.23;;;7.10;99.90;;;;;;5078305;28;20468;-63
2022/10/12 07:31:48;;;;;;;19.50;10.70;;;7.30;99.90;;;;;;5079600;28;20481;-63
2022/10/12 07:34:19;;;;;;;20.83;10.30;;;7.60;1.00;;;;;;5079644;28;20891;-63
2022/10/12 07:36:46;;;;;;;20.63;11.47;;;7.70;99.90;;;;;;5079940;28;20433;-63
2022/10/12 07:39:16;;;;;;;22.47;11.47;;;7.80;99.90;;;;;;5078563;28;20462;-62
2022/10/12 07:41:46;;;;;;;22.83;11.20;;;8.10;99.90;;;;;;5042464;28;20537;-63
2022/10/12 07:44:18;;;;;;;16.87;10.30;;;8.10;1.00;;;;;;5038196;28;20996;-63
2022/10/12 07:46:46;;;;;;;14.70;9.00;;;8.70;1.00;;;;;;5039555;28;20495;-63
2022/10/12 07:49:16;;;;;;;16.17;8.20;;;8.90;1.00;;;;;;5038590;28;20470;-63
2022/10/12 07:51:43;;;;;;;18.40;9.17;;;9.10;1.00;;;;;;5039264;28;20558;-62
2022/10/12 07:54:12;;;;;;;22.70;9.13;;;9.40;1.00;;;;;;5038254;28;20869;-61
2022/10/12 07:56:39;;;;;;;12.80;9.10;;;9.80;1.00;;;;;;5039242;28;20463;-62
2022/10/12 07:59:09;;;;;;;18.03;10.00;;;10.30;1.00;;;;;;5053830;28;20945;-62
2022/10/12 08:01:37;;;;;;;15.70;9.10;;;10.40;1.00;;;;;;5058590;28;20437;-62
2022/10/12 08:04:05;;;;;;;16.23;8.70;;;10.60;1.00;;;;;;5058766;28;20516;-62
2022/10/12 08:06:36;;;;;;;16.00;9.00;;;11.00;1.00;;;;;;5058251;28;20437;-61
2022/10/12 08:09:05;;;;;;;18.23;9.03;;;11.20;1.00;;;;;;5058025;28;20462;-61
2022/10/12 08:11:32;;;;;;;18.77;9.20;;;11.20;1.00;;;;;;5056108;28;20482;-60
2022/10/12 08:14:02;;;;;;;11.30;7.30;;;11.40;1.00;;;;;;5056980;28;20596;-62
2022/10/12 08:16:29;;;;;;;12.77;7.27;;;11.20;1.00;;;;;;5057203;28;20556;-61
2022/10/12 08:19:00;;;;;;;13.73;7.90;;;11.30;1.00;;;;;;5057320;28;20457;-61
2022/10/12 08:21:27;;;;;;;12.77;6.73;;;11.80;1.00;;;;;;5056879;28;20441;-59
2022/10/12 08:23:56;;;;;;;13.07;7.63;;;11.80;1.00;;;;;;5057377;28;20458;-61
2022/10/12 08:26:24;;;;;;;12.33;6.80;;;11.90;99.90;;;;;;5058153;28;20561;-61
2022/10/12 08:28:57;;;;;;;10.90;5.60;;;12.40;99.90;;;;;;5058582;28;20489;-59
2022/10/12 08:31:25;;;;;;;9.67;6.37;;;12.70;99.90;;;;;;5058454;28;20516;-61
2022/10/12 08:33:54;;;;;;;9.30;5.90;;;13.00;99.90;;;;;;5058530;28;20469;-59
2022/10/12 08:36:23;;;;;;;8.87;5.17;;;13.50;99.90;;;;;;5057915;28;20462;-58
2022/10/12 08:38:52;;;;;;;12.30;5.40;;;13.80;99.90;;;;;;5058339;28;20432;-61
2022/10/12 08:41:33;;;;;;;8.97;5.07;;;14.10;99.90;;;;;;5057467;28;20440;-62
2022/10/12 08:44:27;;;;;;;8.20;5.33;;;14.50;99.90;;;;;;5058426;28;20462;-59
2022/10/12 08:47:02;;;;;;;11.87;3.97;;;15.00;99.90;;;;;;5051056;28;20474;-62
2022/10/12 08:49:32;;;;;;;12.07;5.00;;;15.20;99.90;;;;;;5057899;28;20466;-61
2022/10/12 08:52:05;;;;;;;9.67;4.80;;;15.20;99.90;;;;;;5058297;28;20463;-60
2022/10/12 08:54:40;;;;;;;6.20;4.10;;;15.20;99.90;;;;;;5058243;28;20466;-62
2022/10/12 08:57:17;;;;;;;7.20;3.83;;;15.10;99.90;;;;;;5057389;28;20464;-62
2022/10/12 08:59:44;;;;;;;7.23;3.90;;;15.10;99.90;;;;;;5056705;28;20494;-62
2022/10/12 09:02:37;;;;;;;6.23;3.70;;;15.20;99.90;;;;;;5044163;28;20881;-60
2022/10/12 09:05:08;;;;;;;6.10;3.63;;;15.50;99.90;;;;;;5036761;28;20471;-62
2022/10/12 09:07:42;;;;;;;9.97;4.07;;;15.90;99.90;;;;;;5037326;28;20498;-62
2022/10/12 09:10:30;;;;;;;9.33;3.77;;;16.00;99.90;;;;;;5055288;28;20490;-62
2022/10/12 09:13:06;;;;;;;6.23;3.73;;;16.40;99.90;;;;;;5056804;28;20473;-63
2022/10/12 09:15:38;;;;;;;7.13;3.73;;;16.90;99.90;;;;;;5057223;28;20450;-62
2022/10/12 09:18:16;;;;;;;4.60;3.00;;;17.10;99.90;;;;;;5057627;28;20750;-63
2022/10/12 09:20:47;;;;;;;4.63;3.07;;;17.30;99.90;;;;;;5057618;28;20464;-63
2022/10/12 09:23:26;;;;;;;4.37;2.80;;;17.20;99.90;;;;;;5057395;28;20462;-62
2022/10/12 09:25:57;;;;;;;8.43;2.90;;;17.40;99.90;;;;;;5057341;28;20464;-63
2022/10/12 09:28:31;;;;;;;6.57;3.40;;;17.60;99.90;;;;;;5057028;28;20579;-61
2022/10/12 09:31:23;;;;;;;9.20;3.80;;;17.80;99.90;;;;;;5056793;28;20462;-60
2022/10/12 09:33:57;;;;;;;4.90;3.40;;;18.00;99.90;;;;;;5057575;28;20465;-63
2022/10/12 09:36:28;;;;;;;5.83;2.90;;;18.40;99.90;;;;;;5057242;28;20988;-63
2022/10/12 09:39:00;;;;;;;4.10;3.50;;;18.70;99.90;;;;;;5055904;28;20821;-63
2022/10/12 09:41:32;;;;;;;4.13;3.00;;;18.70;99.90;;;;;;5055440;28;20548;-63
2022/10/12 09:44:02;;;;;;;8.87;4.40;;;18.60;99.90;;;;;;5056955;28;20468;-60
2022/10/12 09:46:39;;;;;;;7.50;2.90;;;19.00;99.90;;;;;;5056926;28;20457;-63
2022/10/12 09:49:06;;;;;;;4.50;2.80;;;19.10;99.90;;;;;;5056872;28;20938;-63
2022/10/12 09:51:34;;;;;;;8.90;3.50;;;19.10;99.90;;;;;;5056583;28;20462;-63
2022/10/12 09:54:05;;;;;;;5.47;2.83;;;18.70;99.90;;;;;;5056431;28;20619;-63
2022/10/12 09:56:39;;;;;;;3.67;2.70;;;18.50;99.90;;;;;;5056777;28;20462;-63
2022/10/12 09:59:17;;;;;;;3.97;2.90;;;18.30;99.90;;;;;;5056611;28;20439;-63
2022/10/12 10:01:58;;;;;;;6.93;3.10;;;18.30;99.90;;;;;;5057108;28;20531;-61
2022/10/12 10:04:29;;;;;;;5.47;3.27;;;18.50;99.90;;;;;;5057331;28;20473;-63
2022/10/12 10:07:14;;;;;;;7.83;3.37;;;19.00;99.90;;;;;;5056017;28;20460;-63
2022/10/12 10:09:43;;;;;;;4.43;3.17;;;19.50;99.90;;;;;;5056058;28;20477;-62
2022/10/12 10:12:25;;;;;;;4.43;3.03;;;19.60;99.90;;;;;;5056222;28;20958;-64
2022/10/12 10:14:55;;;;;;;2.43;2.23;;;19.50;99.90;;;;;;5055127;28;21004;-63
2022/10/12 10:17:37;;;;;;;8.40;3.27;;;19.60;99.90;;;;;;5056082;28;20455;-64
2022/10/12 10:20:07;;;;;;;6.43;3.10;;;19.10;99.90;;;;;;5056758;28;20457;-64
2022/10/12 10:22:34;;;;;;;6.80;3.13;;;18.90;99.90;;;;;;5056159;28;20540;-63
2022/10/12 10:25:05;;;;;;;6.57;3.23;;;19.10;99.90;;;;;;5055511;28;20460;-63
2022/10/12 10:27:36;;;;;;;7.40;3.60;;;19.10;99.90;;;;;;5056602;28;20466;-63
2022/10/12 10:30:22;;;;;;;9.07;4.03;;;18.30;99.90;;;;;;5056598;28;20466;-63
2022/10/12 10:33:09;;;;;;;4.00;3.03;;;17.40;99.90;;;;;;5056857;28;20473;-63
2022/10/12 10:35:37;;;;;;;4.30;2.80;;;17.40;99.90;;;;;;5060424;28;20462;-63
2022/10/12 10:38:06;;;;;;;5.43;2.80;;;17.80;99.90;;;;;;5060353;28;20542;-63
2022/10/12 10:40:37;;;;;;;5.57;3.00;;;18.00;99.90;;;;;;5058351;28;20465;-63
2022/10/12 10:43:19;;;;;;;4.80;3.77;;;18.30;99.90;;;;;;5059806;28;20501;-63
2022/10/12 10:45:53;;;;;;;7.10;3.60;;;18.70;99.90;;;;;;5060202;28;20466;-63
2022/10/12 10:48:24;;;;;;;4.93;3.20;;;18.20;99.90;;;;;;5060714;28;20492;-63
2022/10/12 10:50:59;;;;;;;9.30;3.63;;;17.90;99.90;;;;;;5060616;28;20561;-63
2022/10/12 10:53:51;;;;;;;5.90;3.20;;;17.90;99.90;;;;;;5060109;28;20538;-63
2022/10/12 10:59:23;;;;;;;4.77;3.10;;;18.70;99.90;;;;;;5058940;28;20466;-61
2022/10/12 11:01:55;;;;;;;6.47;3.00;;;19.20;99.90;;;;;;5060630;28;20792;-63
2022/10/12 11:04:33;;;;;;;9.77;2.73;;;19.30;99.90;;;;;;5060327;28;20743;-63
2022/10/12 11:07:05;;;;;;;4.87;3.17;;;19.50;99.90;;;;;;5060254;28;20548;-61
2022/10/12 11:09:41;;;;;;;6.03;3.40;;;19.80;99.90;;;;;;5059849;28;20468;-63
2022/10/12 11:12:16;;;;;;;7.70;4.07;;;20.20;99.90;;;;;;5060226;28;20502;-63
2022/10/12 11:14:46;;;;;;;9.90;3.37;;;20.40;99.90;;;;;;5059645;28;20489;-62
2022/10/12 11:17:21;;;;;;;5.93;3.10;;;20.40;99.90;;;;;;5060067;28;20479;-64
2022/10/12 11:19:53;;;;;;;7.13;3.50;;;20.10;99.90;;;;;;5059613;28;20458;-63
2022/10/12 11:22:32;;;;;;;6.93;3.33;;;19.90;99.90;;;;;;5059901;28;20473;-63
2022/10/12 11:25:07;;;;;;;5.27;3.10;;;20.10;99.90;;;;;;5059037;28;20949;-63
2022/10/12 11:27:39;;;;;;;10.73;3.73;;;19.90;99.90;;;;;;5057231;28;20473;-61
2022/10/12 11:30:14;;;;;;;6.67;3.90;;;20.10;99.90;;;;;;5057112;28;20444;-63
2022/10/12 11:32:47;;;;;;;5.87;3.43;;;20.10;99.90;;;;;;5047165;28;20462;-63
2022/10/12 11:35:25;;;;;;;6.87;3.10;;;20.00;99.90;;;;;;5058166;28;20474;-61
2022/10/12 11:38:03;;;;;;;6.07;3.47;;;19.80;99.90;;;;;;5057294;28;20899;-63
2022/10/12 11:40:37;;;;;;;5.73;3.00;;;19.50;99.90;;;;;;5058218;28;20474;-63
2022/10/12 11:43:14;;;;;;;7.20;3.20;;;18.90;99.90;;;;;;5058954;28;20463;-64
2022/10/12 11:45:48;;;;;;;5.27;3.70;;;18.90;99.90;;;;;;5058692;28;20466;-63
2022/10/12 11:48:22;;;;;;;3.83;2.90;;;19.30;99.90;;;;;;5057889;28;20476;-64
2022/10/12 11:50:52;;;;;;;4.17;2.73;;;19.60;99.90;;;;;;5056172;28;20474;-63
2022/10/12 11:53:27;;;;;;;6.00;3.47;;;19.70;99.90;;;;;;5058015;28;20480;-64
2022/10/12 11:56:04;;;;;;;6.97;3.77;;;19.40;99.90;;;;;;5059052;28;20465;-64
2022/10/12 11:58:37;;;;;;;4.97;3.50;;;19.40;99.90;;;;;;5058250;28;20967;-64
2022/10/12 12:01:28;;;;;;;6.60;3.53;;;19.50;99.90;;;;;;5055700;28;20478;-64
2022/10/12 12:04:17;;;;;;;7.40;4.07;;;19.90;99.90;;;;;;5057864;28;20502;-64
2022/10/12 12:07:06;;;;;;;5.80;4.30;;;19.90;99.90;;;;;;5058073;28;20466;-64
2022/10/12 12:09:38;;;;;;;6.30;4.40;;;20.30;99.90;;;;;;5058117;28;21005;-63
2022/10/12 12:12:27;;;;;;;7.83;3.50;;;19.90;99.90;;;;;;5057409;28;20462;-63
2022/10/12 12:15:19;;;;;;;6.03;4.20;;;19.40;99.90;;;;;;5051650;28;20537;-64
2022/10/12 12:18:09;;;;;;;8.80;4.70;;;19.50;99.90;;;;;;5058712;28;20436;-63
2022/10/12 12:21:06;;;;;;;5.17;3.70;;;19.60;99.90;;;;;;5057877;28;20524;-64
2022/10/12 12:23:40;;;;;;;7.17;4.17;;;19.40;99.90;;;;;;5058525;28;20748;-63
2022/10/12 12:26:18;;;;;;;5.57;3.67;;;19.10;99.90;;;;;;5055604;28;20502;-63
2022/10/12 12:28:47;;;;;;;5.33;3.60;;;18.90;99.90;;;;;;5056446;28;20490;-62
2022/10/12 12:31:27;;;;;;;13.47;4.23;;;18.70;99.90;;;;;;5056323;28;20560;-61
2022/10/12 12:34:04;;;;;;;6.67;4.10;;;18.60;99.90;;;;;;5056177;28;20494;-62
2022/10/12 12:36:34;;;;;;;4.73;3.73;;;18.70;99.90;;;;;;5055478;28;20515;-61
2022/10/12 12:39:03;;;;;;;9.43;4.60;;;18.80;99.90;;;;;;5075224;28;20465;-60
2022/10/12 12:41:48;;;;;;;4.83;4.00;;;19.00;99.90;;;;;;5077663;28;20891;-58
2022/10/12 12:44:39;;;;;;;8.30;3.90;;;18.70;99.90;;;;;;5072228;28;20471;-62
2022/10/12 12:47:21;;;;;;;11.60;5.00;;;18.00;99.90;;;;;;5056305;28;20925;-62
2022/10/12 12:49:52;;;;;;;4.47;3.77;;;17.60;99.90;;;;;;5054790;28;20494;-61
2022/10/12 12:52:27;;;;;;;7.93;3.77;;;17.30;99.90;;;;;;5056733;28;20462;-62
2022/10/12 12:55:24;;;;;;;4.23;3.63;;;17.10;99.90;;;;;;5057821;28;20461;-61
2022/10/12 12:58:32;;;;;;;6.63;3.87;;;17.00;99.90;;;;;;5056709;28;20772;-62
2022/10/12 13:01:16;;;;;;;4.97;3.73;;;17.30;99.90;;;;;;5057380;28;20450;-59
2022/10/12 13:04:11;;;;;;;6.23;3.77;;;17.50;99.90;;;;;;5054762;28;20478;-61
2022/10/12 13:07:18;;;;;;;8.17;3.97;;;17.40;99.90;;;;;;5054392;28;20498;-62
2022/10/12 13:09:59;;;;;;;6.67;4.20;;;18.00;99.90;;;;;;5054106;28;20485;-61
2022/10/12 13:12:35;;;;;;;6.80;4.13;;;18.30;99.90;;;;;;5057162;28;20440;-62
2022/10/12 13:15:21;;;;;;;6.83;4.13;;;18.40;99.90;;;;;;5056088;28;20793;-62
2022/10/12 13:18:17;;;;;;;6.47;4.23;;;18.20;99.90;;;;;;5054911;28;20470;-62